KLYH/LYH METAR and TAF weather

Enter ICAO airport designator
Station Type Date Time Source
KLYH METAR 2020/07/06 18:54 UTC NOAA

KLYH 061854Z 18010KT 10SM CLR 33/21 A3007 RMK AO2 SLP171 T03330211


Station Type Date Time Source
KLYH Decoded METAR 2020/07/06 18:54 UTC NOAA

LYNCHBURG REGIONAL AIRPORT, VA, United States (KLYH) 37-19N 079-12W 295M
Jul 06, 2020 - 02:54 PM EDT / 2020.07.06 1854 UTC
Wind: from the S (180 degrees) at 12 MPH (10 KT):0
Visibility: 10 mile(s):0
Sky conditions: clear
Temperature: 91.9 F (33.3 C)
Heat index: 97.3 F (36.3 C):1
Dew Point: 70.0 F (21.1 C)
Relative Humidity: 48%
Pressure (altimeter): 30.07 in. Hg (1018 hPa)
ob: KLYH 061854Z 18010KT 10SM CLR 33/21 A3007 RMK AO2 SLP171 T03330211
cycle: 19

Station Type Date Time Source
KLYH TAF 2020/07/06 18:39 UTC NOAA

TAF KLYH 061737Z 0618/0718 20007KT P6SM SCT050
FM062000 20007KT P6SM VCTS BKN050CB
FM070000 VRB03KT P6SM SCT070 BKN180
FM071500 17005KT P6SM SCT150

Example: see airport list